M/y Ava — MMPY8 — position and weather

sailwx.info

Track history (hours):
 
Tides and Currents Weather Stations Pressure Air Temp Water Temp Dewpoint Dewpoint Depression Visibility Wind Speed Wind Dir Waves Ship Positions

M/y Ava

Last reported at 2014-Jul-23 21:30 UTC. Time now 2014-Jul-23 21:45 UTC.
Position N 43°41' E 007°21'.

Length 40 m; draft 2.8 m.

Type: Pleasure craft. MMSI: 232358000.

Date/timePositionNaut miles runAvg speedWind from/ knotsBaromVisibWave heightAir tempDewpointWater temp
2014-Jul-23 21:30N 43°41' E 007°21'0 0.0
2014-Jul-23 20:31N 43°41' E 007°21'0 0.0
2014-Jul-23 19:33N 43°41' E 007°21'0 0.0
2014-Jul-23 18:26N 43°41' E 007°21'0 0.0
2014-Jul-23 17:33N 43°41' E 007°21'0 0.0
2014-Jul-23 16:33N 43°41' E 007°21'2 0.8
2014-Jul-23 14:29N 43°43' E 007°21'0 0.0
2014-Jul-23 13:32N 43°43' E 007°21'7 6.7
2014-Jul-23 12:32N 43°39' E 007°14'3 3.3
2014-Jul-23 11:33N 43°37' E 007°10'14 0.8
2014-Jul-22 19:13N 43°28' E 006°57'710.6
2014-Jul-22 18:33N 43°22' E 006°52'1111.0
2014-Jul-22 17:32N 43°14' E 006°41'1 0.7
2014-Jul-22 16:28N 43°14' E 006°40'0 0.0
2014-Jul-22 15:33N 43°14' E 006°40'0 0.0
2014-Jul-22 14:33N 43°14' E 006°40'0 0.0
2014-Jul-22 13:33N 43°14' E 006°40'0 0.0
2014-Jul-22 12:33N 43°14' E 006°40'0 0.0
2014-Jul-22 11:33N 43°14' E 006°40'2 2.2
2014-Jul-22 10:29N 43°16' E 006°40'0 0.0
2014-Jul-22 09:33N 43°16' E 006°40'0 0.0
2014-Jul-22 08:33N 43°16' E 006°40'0 0.0
2014-Jul-22 07:33N 43°16' E 006°40'0 0.0
2014-Jul-22 06:33N 43°16' E 006°40'0 0.0
2014-Jul-22 05:33N 43°16' E 006°40'0 0.0
2014-Jul-22 04:33N 43°16' E 006°40'0 0.0
2014-Jul-22 03:33N 43°16' E 006°40'0 0.0
2014-Jul-22 02:33N 43°16' E 006°40'0 0.0
2014-Jul-22 01:33N 43°16' E 006°40'0 0.0
2014-Jul-22 00:33N 43°16' E 006°40'0 0.0
2014-Jul-21 23:33N 43°16' E 006°40'0 0.0
2014-Jul-21 22:33N 43°16' E 006°40'0 0.0
2014-Jul-21 21:33N 43°16' E 006°40'0 0.0
2014-Jul-21 20:33N 43°16' E 006°40'0 0.0
2014-Jul-21 20:16N 43°16' E 006°40'0 0.0
2014-Jul-21 19:30N 43°16' E 006°40'0 0.0
2014-Jul-21 18:33N 43°16' E 006°40'0 0.1
2014-Jul-21 17:33N 43°16' E 006°40'2 1.8
2014-Jul-21 16:33N 43°17' E 006°42'4 3.7
2014-Jul-21 15:32N 43°13' E 006°40'0 0.1
2014-Jul-21 14:33N 43°13' E 006°40'7 7.3
2014-Jul-21 13:33N 43°18' E 006°47'10 9.9
2014-Jul-21 12:33N 43°25' E 006°57'1110.8
2014-Jul-21 11:33N 43°33' E 007°07'0 0.0
2014-Jul-21 10:33N 43°33' E 007°07'0 0.0
2014-Jul-21 09:33N 43°33' E 007°07'0 0.0
2014-Jul-21 08:33N 43°33' E 007°07'0 0.0
2014-Jul-21 07:33N 43°33' E 007°07'0 0.0
2014-Jul-21 06:33N 43°33' E 007°07'0 0.0
2014-Jul-21 05:33N 43°33' E 007°07'0 0.0
2014-Jul-21 04:33N 43°33' E 007°07'0 0.0
2014-Jul-21 03:33N 43°33' E 007°07'0 0.0
2014-Jul-21 02:33N 43°33' E 007°07'0 0.0
2014-Jul-21 01:33N 43°33' E 007°07'0 0.0
2014-Jul-21 00:33N 43°33' E 007°07'0 0.0
2014-Jul-20 23:33N 43°33' E 007°07'0 0.0
2014-Jul-20 22:33N 43°33' E 007°07'0 0.0
2014-Jul-20 21:33N 43°33' E 007°07'0 0.0
2014-Jul-20 20:33N 43°33' E 007°07'0 0.0
2014-Jul-20 19:33N 43°33' E 007°07'4 3.6
2014-Jul-20 18:33N 43°36' E 007°10'3 3.1
2014-Jul-20 17:33N 43°39' E 007°11'6 4.6
2014-Jul-20 16:10N 43°42' E 007°19'0 0.0
2014-Jul-20 15:32N 43°42' E 007°19'0 0.0
2014-Jul-20 14:32N 43°42' E 007°19'0 0.0
2014-Jul-20 13:33N 43°42' E 007°19'0 0.0
2014-Jul-20 12:33N 43°42' E 007°19'0 0.0
2014-Jul-20 11:32N 43°42' E 007°19'5 0.1
2014-Jul-18 16:32N 43°44' E 007°25'  
2014-Jul-15 18:33N 43°34' E 007°10'1111.2
2014-Jul-15 17:33N 43°26' E 006°59'1111.2
2014-Jul-15 16:33N 43°18' E 006°48'7 6.0
2014-Jul-15 15:20N 43°13' E 006°40'0 0.0
2014-Jul-15 13:33N 43°13' E 006°40'0 0.0
2014-Jul-15 12:33N 43°13' E 006°40'6 6.2
2014-Jul-15 11:33N 43°18' E 006°46'1211.8
2014-Jul-15 10:33N 43°26' E 006°58'7 6.8
2014-Jul-15 09:31N 43°30' E 007°06'1711.7
2014-Jul-15 08:03N 43°42' E 007°23'0 0.0
2014-Jul-14 18:22N 43°42' E 007°22'8 6.1
2014-Jul-14 17:07N 43°37' E 007°15'611.1
2014-Jul-14 16:33N 43°32' E 007°09'5 1.0
2014-Jul-14 11:32N 43°31' E 007°02'3 2.4
2014-Jul-14 10:29N 43°31' E 007°05'  
Track history (hours):
 
Tides and Currents Weather Stations Pressure Air Temp Water Temp Dewpoint Dewpoint Depression Visibility Wind Speed Wind Dir Waves Ship Positions

M/y Ava

Last reported at 2014-Jul-23 21:30 UTC. Time now 2014-Jul-23 21:45 UTC.
Position N 43°41' E 007°21'.

Length 40 m; draft 2.8 m.

Type: Pleasure craft. MMSI: 232358000.

Date/timePositionNaut miles runAvg speedWind from/ knotsBaromVisibWave heightAir tempDewpointWater temp
2014-Jul-23 21:30N 43°41' E 007°21'0 0.0
2014-Jul-23 20:31N 43°41' E 007°21'0 0.0
2014-Jul-23 19:33N 43°41' E 007°21'0 0.0
2014-Jul-23 18:26N 43°41' E 007°21'0 0.0
2014-Jul-23 17:33N 43°41' E 007°21'0 0.0
2014-Jul-23 16:33N 43°41' E 007°21'2 0.8
2014-Jul-23 14:29N 43°43' E 007°21'0 0.0
2014-Jul-23 13:32N 43°43' E 007°21'7 6.7
2014-Jul-23 12:32N 43°39' E 007°14'3 3.3
2014-Jul-23 11:33N 43°37' E 007°10'14 0.8
2014-Jul-22 19:13N 43°28' E 006°57'710.6
2014-Jul-22 18:33N 43°22' E 006°52'1111.0
2014-Jul-22 17:32N 43°14' E 006°41'1 0.7
2014-Jul-22 16:28N 43°14' E 006°40'0 0.0
2014-Jul-22 15:33N 43°14' E 006°40'0 0.0
2014-Jul-22 14:33N 43°14' E 006°40'0 0.0
2014-Jul-22 13:33N 43°14' E 006°40'0 0.0
2014-Jul-22 12:33N 43°14' E 006°40'0 0.0
2014-Jul-22 11:33N 43°14' E 006°40'2 2.2
2014-Jul-22 10:29N 43°16' E 006°40'0 0.0
2014-Jul-22 09:33N 43°16' E 006°40'0 0.0
2014-Jul-22 08:33N 43°16' E 006°40'0 0.0
2014-Jul-22 07:33N 43°16' E 006°40'0 0.0
2014-Jul-22 06:33N 43°16' E 006°40'0 0.0
2014-Jul-22 05:33N 43°16' E 006°40'0 0.0
2014-Jul-22 04:33N 43°16' E 006°40'0 0.0
2014-Jul-22 03:33N 43°16' E 006°40'0 0.0
2014-Jul-22 02:33N 43°16' E 006°40'0 0.0
2014-Jul-22 01:33N 43°16' E 006°40'0 0.0
2014-Jul-22 00:33N 43°16' E 006°40'0 0.0
2014-Jul-21 23:33N 43°16' E 006°40'0 0.0
2014-Jul-21 22:33N 43°16' E 006°40'0 0.0
2014-Jul-21 21:33N 43°16' E 006°40'0 0.0
2014-Jul-21 20:33N 43°16' E 006°40'0 0.0
2014-Jul-21 20:16N 43°16' E 006°40'0 0.0
2014-Jul-21 19:30N 43°16' E 006°40'0 0.0
2014-Jul-21 18:33N 43°16' E 006°40'0 0.1
2014-Jul-21 17:33N 43°16' E 006°40'2 1.8
2014-Jul-21 16:33N 43°17' E 006°42'4 3.7
2014-Jul-21 15:32N 43°13' E 006°40'0 0.1
2014-Jul-21 14:33N 43°13' E 006°40'7 7.3
2014-Jul-21 13:33N 43°18' E 006°47'10 9.9
2014-Jul-21 12:33N 43°25' E 006°57'1110.8
2014-Jul-21 11:33N 43°33' E 007°07'0 0.0
2014-Jul-21 10:33N 43°33' E 007°07'0 0.0
2014-Jul-21 09:33N 43°33' E 007°07'0 0.0
2014-Jul-21 08:33N 43°33' E 007°07'0 0.0
2014-Jul-21 07:33N 43°33' E 007°07'0 0.0
2014-Jul-21 06:33N 43°33' E 007°07'0 0.0
2014-Jul-21 05:33N 43°33' E 007°07'0 0.0
2014-Jul-21 04:33N 43°33' E 007°07'0 0.0
2014-Jul-21 03:33N 43°33' E 007°07'0 0.0
2014-Jul-21 02:33N 43°33' E 007°07'0 0.0
2014-Jul-21 01:33N 43°33' E 007°07'0 0.0
2014-Jul-21 00:33N 43°33' E 007°07'0 0.0
2014-Jul-20 23:33N 43°33' E 007°07'0 0.0
2014-Jul-20 22:33N 43°33' E 007°07'0 0.0
2014-Jul-20 21:33N 43°33' E 007°07'0 0.0
2014-Jul-20 20:33N 43°33' E 007°07'0 0.0
2014-Jul-20 19:33N 43°33' E 007°07'4 3.6
2014-Jul-20 18:33N 43°36' E 007°10'3 3.1
2014-Jul-20 17:33N 43°39' E 007°11'6 4.6
2014-Jul-20 16:10N 43°42' E 007°19'0 0.0
2014-Jul-20 15:32N 43°42' E 007°19'0 0.0
2014-Jul-20 14:32N 43°42' E 007°19'0 0.0
2014-Jul-20 13:33N 43°42' E 007°19'0 0.0
2014-Jul-20 12:33N 43°42' E 007°19'0 0.0
2014-Jul-20 11:32N 43°42' E 007°19'5 0.1
2014-Jul-18 16:32N 43°44' E 007°25'  
2014-Jul-15 18:33N 43°34' E 007°10'1111.2
2014-Jul-15 17:33N 43°26' E 006°59'1111.2
2014-Jul-15 16:33N 43°18' E 006°48'7 6.0
2014-Jul-15 15:20N 43°13' E 006°40'0 0.0
2014-Jul-15 13:33N 43°13' E 006°40'0 0.0
2014-Jul-15 12:33N 43°13' E 006°40'6 6.2
2014-Jul-15 11:33N 43°18' E 006°46'1211.8
2014-Jul-15 10:33N 43°26' E 006°58'7 6.8
2014-Jul-15 09:31N 43°30' E 007°06'1711.7
2014-Jul-15 08:03N 43°42' E 007°23'0 0.0
2014-Jul-14 18:22N 43°42' E 007°22'8 6.1
2014-Jul-14 17:07N 43°37' E 007°15'611.1
2014-Jul-14 16:33N 43°32' E 007°09'5 1.0
2014-Jul-14 11:32N 43°31' E 007°02'3 2.4
2014-Jul-14 10:29N 43°31' E 007°05'  

Dump ship's entire track history